sensor_id;sensor_type;location;lat;lon;timestamp;P1;durP1;ratioP1;P2;durP2;ratioP2
15968;SDS011;8085;53.472;9.794;2023-05-10T00:00:09;6.63;;;2.10;;
15968;SDS011;8085;53.472;9.794;2023-05-10T00:02:37;3.37;;;2.17;;
15968;SDS011;8085;53.472;9.794;2023-05-10T00:05:04;3.83;;;2.00;;
15968;SDS011;8085;53.472;9.794;2023-05-10T00:07:33;3.83;;;2.33;;
15968;SDS011;8085;53.472;9.794;2023-05-10T00:10:00;3.27;;;2.13;;
15968;SDS011;8085;53.472;9.794;2023-05-10T00:12:27;3.60;;;1.97;;
15968;SDS011;8085;53.472;9.794;2023-05-10T00:14:54;2.73;;;1.97;;
15968;SDS011;8085;53.472;9.794;2023-05-10T00:17:21;5.30;;;1.90;;
15968;SDS011;8085;53.472;9.794;2023-05-10T00:19:48;2.73;;;1.90;;
15968;SDS011;8085;53.472;9.794;2023-05-10T00:22:15;3.00;;;2.10;;
15968;SDS011;8085;53.472;9.794;2023-05-10T00:24:43;3.80;;;1.97;;
15968;SDS011;8085;53.472;9.794;2023-05-10T00:27:10;4.37;;;2.20;;
15968;SDS011;8085;53.472;9.794;2023-05-10T00:29:37;4.40;;;2.37;;
15968;SDS011;8085;53.472;9.794;2023-05-10T00:32:04;7.03;;;2.30;;
15968;SDS011;8085;53.472;9.794;2023-05-10T00:34:31;7.43;;;2.17;;
15968;SDS011;8085;53.472;9.794;2023-05-10T00:36:58;3.50;;;2.43;;
15968;SDS011;8085;53.472;9.794;2023-05-10T00:39:25;2.60;;;2.07;;
15968;SDS011;8085;53.472;9.794;2023-05-10T00:41:55;4.20;;;2.13;;
15968;SDS011;8085;53.472;9.794;2023-05-10T00:44:22;3.70;;;2.20;;
15968;SDS011;8085;53.472;9.794;2023-05-10T00:46:49;3.30;;;2.23;;
15968;SDS011;8085;53.472;9.794;2023-05-10T00:49:16;5.57;;;2.20;;
15968;SDS011;8085;53.472;9.794;2023-05-10T00:51:43;3.10;;;2.10;;
15968;SDS011;8085;53.472;9.794;2023-05-10T00:54:18;3.53;;;2.20;;
15968;SDS011;8085;53.472;9.794;2023-05-10T00:56:45;3.93;;;1.90;;
15968;SDS011;8085;53.472;9.794;2023-05-10T00:59:15;7.20;;;2.20;;
15968;SDS011;8085;53.472;9.794;2023-05-10T01:01:42;4.27;;;2.27;;
15968;SDS011;8085;53.472;9.794;2023-05-10T01:04:10;4.67;;;2.03;;
15968;SDS011;8085;53.472;9.794;2023-05-10T01:06:37;2.43;;;2.10;;
15968;SDS011;8085;53.472;9.794;2023-05-10T01:09:04;4.60;;;2.50;;
15968;SDS011;8085;53.472;9.794;2023-05-10T01:11:32;5.67;;;2.30;;
15968;SDS011;8085;53.472;9.794;2023-05-10T01:13:59;3.43;;;2.20;;
15968;SDS011;8085;53.472;9.794;2023-05-10T01:16:27;6.33;;;2.70;;
15968;SDS011;8085;53.472;9.794;2023-05-10T01:18:55;3.97;;;2.47;;
15968;SDS011;8085;53.472;9.794;2023-05-10T01:21:23;3.30;;;2.40;;
15968;SDS011;8085;53.472;9.794;2023-05-10T01:24:22;4.00;;;2.37;;
15968;SDS011;8085;53.472;9.794;2023-05-10T01:27:14;3.37;;;2.77;;
15968;SDS011;8085;53.472;9.794;2023-05-10T01:32:55;3.53;;;2.37;;
15968;SDS011;8085;53.472;9.794;2023-05-10T01:35:26;3.77;;;2.77;;
15968;SDS011;8085;53.472;9.794;2023-05-10T01:38:09;5.17;;;2.73;;
15968;SDS011;8085;53.472;9.794;2023-05-10T01:40:45;4.77;;;2.50;;
15968;SDS011;8085;53.472;9.794;2023-05-10T01:43:19;3.00;;;2.40;;
15968;SDS011;8085;53.472;9.794;2023-05-10T01:45:50;4.70;;;2.50;;
15968;SDS011;8085;53.472;9.794;2023-05-10T01:48:30;5.20;;;2.37;;
15968;SDS011;8085;53.472;9.794;2023-05-10T01:50:59;5.97;;;2.73;;
15968;SDS011;8085;53.472;9.794;2023-05-10T01:53:26;2.53;;;2.13;;
15968;SDS011;8085;53.472;9.794;2023-05-10T01:55:54;3.23;;;2.33;;
15968;SDS011;8085;53.472;9.794;2023-05-10T01:58:22;5.13;;;2.97;;
15968;SDS011;8085;53.472;9.794;2023-05-10T02:00:53;5.00;;;2.43;;
15968;SDS011;8085;53.472;9.794;2023-05-10T02:03:22;4.80;;;2.50;;
15968;SDS011;8085;53.472;9.794;2023-05-10T02:05:53;4.63;;;2.80;;
15968;SDS011;8085;53.472;9.794;2023-05-10T02:08:22;7.13;;;2.83;;
15968;SDS011;8085;53.472;9.794;2023-05-10T02:10:52;7.17;;;2.77;;
15968;SDS011;8085;53.472;9.794;2023-05-10T02:13:20;4.80;;;2.67;;
15968;SDS011;8085;53.472;9.794;2023-05-10T02:15:49;3.43;;;2.47;;
15968;SDS011;8085;53.472;9.794;2023-05-10T02:18:17;3.17;;;2.37;;
15968;SDS011;8085;53.472;9.794;2023-05-10T02:20:45;6.03;;;2.90;;
15968;SDS011;8085;53.472;9.794;2023-05-10T02:23:14;3.23;;;2.73;;
15968;SDS011;8085;53.472;9.794;2023-05-10T02:25:44;3.10;;;2.80;;
15968;SDS011;8085;53.472;9.794;2023-05-10T02:28:12;12.43;;;2.90;;
15968;SDS011;8085;53.472;9.794;2023-05-10T02:30:40;4.90;;;2.80;;
15968;SDS011;8085;53.472;9.794;2023-05-10T02:33:09;3.80;;;2.70;;
15968;SDS011;8085;53.472;9.794;2023-05-10T02:35:37;7.37;;;3.00;;
15968;SDS011;8085;53.472;9.794;2023-05-10T02:38:04;5.80;;;2.70;;
15968;SDS011;8085;53.472;9.794;2023-05-10T02:40:33;6.50;;;2.80;;
15968;SDS011;8085;53.472;9.794;2023-05-10T02:43:02;4.53;;;2.83;;
15968;SDS011;8085;53.472;9.794;2023-05-10T02:45:32;3.40;;;2.67;;
15968;SDS011;8085;53.472;9.794;2023-05-10T02:48:04;5.07;;;3.00;;
15968;SDS011;8085;53.472;9.794;2023-05-10T02:50:32;4.90;;;2.50;;
15968;SDS011;8085;53.472;9.794;2023-05-10T02:53:00;6.17;;;2.70;;
15968;SDS011;8085;53.472;9.794;2023-05-10T02:55:31;4.53;;;2.70;;
15968;SDS011;8085;53.472;9.794;2023-05-10T02:58:03;4.57;;;2.93;;
15968;SDS011;8085;53.472;9.794;2023-05-10T03:00:29;5.37;;;2.90;;
15968;SDS011;8085;53.472;9.794;2023-05-10T03:02:57;4.47;;;3.00;;
15968;SDS011;8085;53.472;9.794;2023-05-10T03:05:25;3.80;;;2.67;;
15968;SDS011;8085;53.472;9.794;2023-05-10T03:07:52;5.47;;;3.40;;
15968;SDS011;8085;53.472;9.794;2023-05-10T03:10:19;5.37;;;3.20;;
15968;SDS011;8085;53.472;9.794;2023-05-10T03:12:55;7.20;;;3.30;;
15968;SDS011;8085;53.472;9.794;2023-05-10T03:15:31;5.13;;;2.57;;
15968;SDS011;8085;53.472;9.794;2023-05-10T03:18:09;3.57;;;2.87;;
15968;SDS011;8085;53.472;9.794;2023-05-10T03:20:41;5.07;;;3.20;;
15968;SDS011;8085;53.472;9.794;2023-05-10T03:23:11;5.67;;;2.77;;
15968;SDS011;8085;53.472;9.794;2023-05-10T03:25:45;5.23;;;2.90;;
15968;SDS011;8085;53.472;9.794;2023-05-10T03:28:16;4.77;;;2.87;;
15968;SDS011;8085;53.472;9.794;2023-05-10T03:30:44;3.40;;;2.60;;
15968;SDS011;8085;53.472;9.794;2023-05-10T03:33:13;6.27;;;3.60;;
15968;SDS011;8085;53.472;9.794;2023-05-10T03:35:40;4.20;;;2.80;;
15968;SDS011;8085;53.472;9.794;2023-05-10T03:38:07;5.50;;;3.17;;
15968;SDS011;8085;53.472;9.794;2023-05-10T03:40:33;4.47;;;3.20;;
15968;SDS011;8085;53.472;9.794;2023-05-10T03:43:00;3.73;;;3.00;;
15968;SDS011;8085;53.472;9.794;2023-05-10T03:45:29;3.43;;;2.90;;
15968;SDS011;8085;53.472;9.794;2023-05-10T03:47:56;6.40;;;3.07;;
15968;SDS011;8085;53.472;9.794;2023-05-10T03:50:23;4.40;;;3.27;;
15968;SDS011;8085;53.472;9.794;2023-05-10T03:52:51;7.60;;;3.03;;
15968;SDS011;8085;53.472;9.794;2023-05-10T03:55:19;7.87;;;3.40;;
15968;SDS011;8085;53.472;9.794;2023-05-10T03:57:46;5.10;;;3.13;;
15968;SDS011;8085;53.472;9.794;2023-05-10T04:00:14;4.93;;;2.90;;
15968;SDS011;8085;53.472;9.794;2023-05-10T04:02:43;4.90;;;3.03;;
15968;SDS011;8085;53.472;9.794;2023-05-10T04:05:11;5.30;;;3.30;;
15968;SDS011;8085;53.472;9.794;2023-05-10T04:07:38;4.33;;;3.23;;
15968;SDS011;8085;53.472;9.794;2023-05-10T04:10:05;4.23;;;3.03;;
15968;SDS011;8085;53.472;9.794;2023-05-10T04:12:33;4.50;;;3.17;;
15968;SDS011;8085;53.472;9.794;2023-05-10T04:14:59;4.13;;;3.10;;
15968;SDS011;8085;53.472;9.794;2023-05-10T04:17:27;8.37;;;3.70;;
15968;SDS011;8085;53.472;9.794;2023-05-10T04:19:55;7.00;;;3.20;;
15968;SDS011;8085;53.472;9.794;2023-05-10T04:22:22;3.70;;;3.00;;
15968;SDS011;8085;53.472;9.794;2023-05-10T04:24:49;4.40;;;2.70;;
15968;SDS011;8085;53.472;9.794;2023-05-10T04:27:16;8.23;;;3.30;;
15968;SDS011;8085;53.472;9.794;2023-05-10T04:29:43;4.47;;;3.00;;
15968;SDS011;8085;53.472;9.794;2023-05-10T04:32:10;4.47;;;2.97;;
15968;SDS011;8085;53.472;9.794;2023-05-10T04:34:37;4.27;;;3.33;;
15968;SDS011;8085;53.472;9.794;2023-05-10T04:37:05;5.40;;;2.97;;
15968;SDS011;8085;53.472;9.794;2023-05-10T04:39:32;4.23;;;3.00;;
15968;SDS011;8085;53.472;9.794;2023-05-10T04:42:00;4.50;;;3.07;;
15968;SDS011;8085;53.472;9.794;2023-05-10T04:44:28;6.87;;;3.40;;
15968;SDS011;8085;53.472;9.794;2023-05-10T04:46:55;4.77;;;2.73;;
15968;SDS011;8085;53.472;9.794;2023-05-10T04:49:21;6.07;;;3.23;;
15968;SDS011;8085;53.472;9.794;2023-05-10T04:51:48;4.97;;;3.20;;
15968;SDS011;8085;53.472;9.794;2023-05-10T04:54:17;6.87;;;3.20;;
15968;SDS011;8085;53.472;9.794;2023-05-10T04:56:43;5.70;;;3.20;;
15968;SDS011;8085;53.472;9.794;2023-05-10T04:59:10;6.23;;;3.07;;
15968;SDS011;8085;53.472;9.794;2023-05-10T05:01:37;4.60;;;3.10;;
15968;SDS011;8085;53.472;9.794;2023-05-10T05:04:04;5.30;;;3.50;;
15968;SDS011;8085;53.472;9.794;2023-05-10T05:06:31;5.47;;;3.07;;
15968;SDS011;8085;53.472;9.794;2023-05-10T05:08:58;4.23;;;3.20;;
15968;SDS011;8085;53.472;9.794;2023-05-10T05:11:27;4.73;;;3.40;;
15968;SDS011;8085;53.472;9.794;2023-05-10T05:13:54;4.90;;;3.03;;
15968;SDS011;8085;53.472;9.794;2023-05-10T05:16:20;5.53;;;3.13;;
15968;SDS011;8085;53.472;9.794;2023-05-10T05:18:47;6.23;;;3.33;;
15968;SDS011;8085;53.472;9.794;2023-05-10T05:21:14;3.83;;;2.97;;
15968;SDS011;8085;53.472;9.794;2023-05-10T05:23:42;3.93;;;3.00;;
15968;SDS011;8085;53.472;9.794;2023-05-10T05:26:09;5.30;;;3.20;;
15968;SDS011;8085;53.472;9.794;2023-05-10T05:28:37;4.60;;;3.37;;
15968;SDS011;8085;53.472;9.794;2023-05-10T05:31:04;4.07;;;3.10;;
15968;SDS011;8085;53.472;9.794;2023-05-10T05:33:32;3.77;;;3.10;;
15968;SDS011;8085;53.472;9.794;2023-05-10T05:36:00;6.43;;;3.40;;
15968;SDS011;8085;53.472;9.794;2023-05-10T05:38:27;4.50;;;3.47;;
15968;SDS011;8085;53.472;9.794;2023-05-10T05:40:54;4.03;;;3.20;;
15968;SDS011;8085;53.472;9.794;2023-05-10T05:43:22;5.60;;;3.37;;
15968;SDS011;8085;53.472;9.794;2023-05-10T05:45:51;4.97;;;3.43;;
15968;SDS011;8085;53.472;9.794;2023-05-10T05:48:18;6.60;;;3.33;;
15968;SDS011;8085;53.472;9.794;2023-05-10T05:50:45;4.37;;;3.20;;
15968;SDS011;8085;53.472;9.794;2023-05-10T05:53:12;4.10;;;2.97;;
15968;SDS011;8085;53.472;9.794;2023-05-10T05:55:39;5.20;;;3.33;;
15968;SDS011;8085;53.472;9.794;2023-05-10T05:58:06;5.77;;;3.20;;
15968;SDS011;8085;53.472;9.794;2023-05-10T06:00:33;4.43;;;3.17;;
15968;SDS011;8085;53.472;9.794;2023-05-10T06:03:01;6.53;;;3.30;;
15968;SDS011;8085;53.472;9.794;2023-05-10T06:05:28;6.83;;;2.97;;
15968;SDS011;8085;53.472;9.794;2023-05-10T06:07:55;4.77;;;3.20;;
15968;SDS011;8085;53.472;9.794;2023-05-10T06:10:22;4.47;;;3.27;;
15968;SDS011;8085;53.472;9.794;2023-05-10T06:12:50;5.17;;;3.30;;
15968;SDS011;8085;53.472;9.794;2023-05-10T06:15:17;4.80;;;3.10;;
15968;SDS011;8085;53.472;9.794;2023-05-10T06:17:44;7.33;;;3.37;;
15968;SDS011;8085;53.472;9.794;2023-05-10T06:20:15;5.03;;;3.63;;
15968;SDS011;8085;53.472;9.794;2023-05-10T06:22:42;4.70;;;3.33;;
15968;SDS011;8085;53.472;9.794;2023-05-10T06:25:24;4.33;;;3.20;;
15968;SDS011;8085;53.472;9.794;2023-05-10T06:27:57;5.37;;;3.50;;
15968;SDS011;8085;53.472;9.794;2023-05-10T06:30:25;6.83;;;3.60;;
15968;SDS011;8085;53.472;9.794;2023-05-10T06:32:53;4.90;;;3.23;;
15968;SDS011;8085;53.472;9.794;2023-05-10T06:35:22;7.57;;;3.60;;
15968;SDS011;8085;53.472;9.794;2023-05-10T06:37:50;4.50;;;3.07;;
15968;SDS011;8085;53.472;9.794;2023-05-10T06:40:17;4.53;;;3.30;;
15968;SDS011;8085;53.472;9.794;2023-05-10T06:42:44;8.67;;;3.50;;
15968;SDS011;8085;53.472;9.794;2023-05-10T06:45:11;5.07;;;3.37;;
15968;SDS011;8085;53.472;9.794;2023-05-10T06:47:39;4.93;;;3.27;;
15968;SDS011;8085;53.472;9.794;2023-05-10T06:50:06;4.90;;;3.00;;
15968;SDS011;8085;53.472;9.794;2023-05-10T06:52:35;4.73;;;3.30;;
15968;SDS011;8085;53.472;9.794;2023-05-10T06:55:02;7.47;;;3.30;;
15968;SDS011;8085;53.472;9.794;2023-05-10T06:57:29;5.90;;;3.57;;
15968;SDS011;8085;53.472;9.794;2023-05-10T06:59:56;6.47;;;3.30;;
15968;SDS011;8085;53.472;9.794;2023-05-10T07:02:23;3.90;;;3.50;;
15968;SDS011;8085;53.472;9.794;2023-05-10T07:04:50;6.10;;;3.10;;
15968;SDS011;8085;53.472;9.794;2023-05-10T07:07:17;4.10;;;3.50;;
15968;SDS011;8085;53.472;9.794;2023-05-10T07:09:45;4.73;;;3.50;;
15968;SDS011;8085;53.472;9.794;2023-05-10T07:12:12;4.17;;;3.30;;
15968;SDS011;8085;53.472;9.794;2023-05-10T07:14:39;4.57;;;3.40;;
15968;SDS011;8085;53.472;9.794;2023-05-10T07:17:06;5.60;;;3.30;;
15968;SDS011;8085;53.472;9.794;2023-05-10T07:19:33;6.73;;;3.50;;
15968;SDS011;8085;53.472;9.794;2023-05-10T07:22:00;4.53;;;3.20;;
15968;SDS011;8085;53.472;9.794;2023-05-10T07:24:27;6.30;;;3.20;;
15968;SDS011;8085;53.472;9.794;2023-05-10T07:26:55;6.63;;;3.40;;
15968;SDS011;8085;53.472;9.794;2023-05-10T07:29:22;5.47;;;3.07;;
15968;SDS011;8085;53.472;9.794;2023-05-10T07:31:49;5.67;;;3.33;;
15968;SDS011;8085;53.472;9.794;2023-05-10T07:34:16;5.10;;;3.40;;
15968;SDS011;8085;53.472;9.794;2023-05-10T07:36:43;3.33;;;3.03;;
15968;SDS011;8085;53.472;9.794;2023-05-10T07:39:10;5.90;;;3.50;;
15968;SDS011;8085;53.472;9.794;2023-05-10T07:41:37;3.87;;;2.87;;
15968;SDS011;8085;53.472;9.794;2023-05-10T07:44:05;6.67;;;3.47;;
15968;SDS011;8085;53.472;9.794;2023-05-10T07:46:32;6.50;;;3.40;;
15968;SDS011;8085;53.472;9.794;2023-05-10T07:48:59;4.57;;;3.63;;
15968;SDS011;8085;53.472;9.794;2023-05-10T07:51:26;5.17;;;3.57;;
15968;SDS011;8085;53.472;9.794;2023-05-10T07:53:53;8.10;;;3.90;;
15968;SDS011;8085;53.472;9.794;2023-05-10T07:56:21;6.77;;;3.80;;
15968;SDS011;8085;53.472;9.794;2023-05-10T07:58:50;6.67;;;3.47;;
15968;SDS011;8085;53.472;9.794;2023-05-10T08:01:18;5.63;;;3.70;;
15968;SDS011;8085;53.472;9.794;2023-05-10T08:03:45;6.03;;;3.80;;
15968;SDS011;8085;53.472;9.794;2023-05-10T08:06:12;5.10;;;3.70;;
15968;SDS011;8085;53.472;9.794;2023-05-10T08:08:40;6.27;;;4.20;;
15968;SDS011;8085;53.472;9.794;2023-05-10T08:11:07;10.87;;;4.40;;
15968;SDS011;8085;53.472;9.794;2023-05-10T08:13:34;8.20;;;4.03;;
15968;SDS011;8085;53.472;9.794;2023-05-10T08:16:01;8.13;;;4.10;;
15968;SDS011;8085;53.472;9.794;2023-05-10T08:18:29;5.63;;;4.17;;
15968;SDS011;8085;53.472;9.794;2023-05-10T08:20:56;8.20;;;3.90;;
15968;SDS011;8085;53.472;9.794;2023-05-10T08:23:23;10.53;;;4.20;;
15968;SDS011;8085;53.472;9.794;2023-05-10T08:25:51;5.73;;;3.77;;
15968;SDS011;8085;53.472;9.794;2023-05-10T08:28:17;5.27;;;3.77;;
15968;SDS011;8085;53.472;9.794;2023-05-10T08:30:44;5.50;;;4.33;;
15968;SDS011;8085;53.472;9.794;2023-05-10T08:33:11;6.10;;;3.93;;
15968;SDS011;8085;53.472;9.794;2023-05-10T08:35:39;6.57;;;3.80;;
15968;SDS011;8085;53.472;9.794;2023-05-10T08:38:06;9.53;;;4.00;;
15968;SDS011;8085;53.472;9.794;2023-05-10T08:40:33;6.43;;;4.77;;
15968;SDS011;8085;53.472;9.794;2023-05-10T08:43:04;6.40;;;4.33;;
15968;SDS011;8085;53.472;9.794;2023-05-10T08:45:32;6.83;;;4.20;;
15968;SDS011;8085;53.472;9.794;2023-05-10T08:48:03;9.13;;;5.13;;
15968;SDS011;8085;53.472;9.794;2023-05-10T08:50:34;8.70;;;4.60;;
15968;SDS011;8085;53.472;9.794;2023-05-10T08:53:05;6.23;;;4.60;;
15968;SDS011;8085;53.472;9.794;2023-05-10T08:55:35;7.57;;;4.50;;
15968;SDS011;8085;53.472;9.794;2023-05-10T08:58:03;9.33;;;4.53;;
15968;SDS011;8085;53.472;9.794;2023-05-10T09:00:31;6.37;;;4.60;;
15968;SDS011;8085;53.472;9.794;2023-05-10T09:02:58;6.27;;;4.70;;
15968;SDS011;8085;53.472;9.794;2023-05-10T09:05:26;5.93;;;4.67;;
15968;SDS011;8085;53.472;9.794;2023-05-10T09:07:53;8.07;;;4.77;;
15968;SDS011;8085;53.472;9.794;2023-05-10T09:10:21;5.93;;;4.53;;
15968;SDS011;8085;53.472;9.794;2023-05-10T09:12:52;7.60;;;4.63;;
15968;SDS011;8085;53.472;9.794;2023-05-10T09:15:22;5.97;;;5.07;;
15968;SDS011;8085;53.472;9.794;2023-05-10T09:17:49;8.07;;;5.37;;
15968;SDS011;8085;53.472;9.794;2023-05-10T09:20:16;6.30;;;5.20;;
15968;SDS011;8085;53.472;9.794;2023-05-10T09:22:43;8.47;;;5.77;;
15968;SDS011;8085;53.472;9.794;2023-05-10T09:25:10;8.07;;;5.67;;
15968;SDS011;8085;53.472;9.794;2023-05-10T09:27:40;10.37;;;5.53;;
15968;SDS011;8085;53.472;9.794;2023-05-10T09:30:08;9.07;;;6.10;;
15968;SDS011;8085;53.472;9.794;2023-05-10T09:32:39;6.87;;;5.20;;
15968;SDS011;8085;53.472;9.794;2023-05-10T09:35:07;7.40;;;5.77;;
15968;SDS011;8085;53.472;9.794;2023-05-10T09:37:35;8.83;;;6.30;;
15968;SDS011;8085;53.472;9.794;2023-05-10T09:40:04;10.10;;;6.47;;
15968;SDS011;8085;53.472;9.794;2023-05-10T09:42:33;7.53;;;6.23;;
15968;SDS011;8085;53.472;9.794;2023-05-10T09:45:02;7.73;;;6.47;;
15968;SDS011;8085;53.472;9.794;2023-05-10T09:47:31;9.47;;;6.57;;
15968;SDS011;8085;53.472;9.794;2023-05-10T09:49:59;7.10;;;6.30;;
15968;SDS011;8085;53.472;9.794;2023-05-10T09:52:45;8.67;;;6.80;;
15968;SDS011;8085;53.472;9.794;2023-05-10T09:55:14;11.13;;;7.17;;
15968;SDS011;8085;53.472;9.794;2023-05-10T09:57:41;10.03;;;6.20;;
15968;SDS011;8085;53.472;9.794;2023-05-10T10:00:10;8.80;;;6.70;;
15968;SDS011;8085;53.472;9.794;2023-05-10T10:02:46;10.20;;;7.50;;
15968;SDS011;8085;53.472;9.794;2023-05-10T10:05:14;10.27;;;8.13;;
15968;SDS011;8085;53.472;9.794;2023-05-10T10:07:41;10.83;;;7.30;;
15968;SDS011;8085;53.472;9.794;2023-05-10T10:10:10;8.83;;;7.93;;
15968;SDS011;8085;53.472;9.794;2023-05-10T10:12:40;10.30;;;7.63;;
15968;SDS011;8085;53.472;9.794;2023-05-10T10:15:08;9.87;;;7.90;;
15968;SDS011;8085;53.472;9.794;2023-05-10T10:17:36;10.00;;;8.20;;
15968;SDS011;8085;53.472;9.794;2023-05-10T10:20:05;10.93;;;7.87;;
15968;SDS011;8085;53.472;9.794;2023-05-10T10:22:33;9.30;;;8.00;;
15968;SDS011;8085;53.472;9.794;2023-05-10T10:25:00;10.50;;;7.87;;
15968;SDS011;8085;53.472;9.794;2023-05-10T10:35:58;10.27;;;7.90;;
15968;SDS011;8085;53.472;9.794;2023-05-10T10:38:36;11.73;;;8.57;;
15968;SDS011;8085;53.472;9.794;2023-05-10T10:45:40;10.47;;;8.57;;
15968;SDS011;8085;53.472;9.794;2023-05-10T11:08:26;12.00;;;8.33;;
15968;SDS011;8085;53.472;9.794;2023-05-10T11:48:59;9.00;;;8.07;;
15968;SDS011;8085;53.472;9.794;2023-05-10T11:51:33;9.47;;;7.83;;
15968;SDS011;8085;53.472;9.794;2023-05-10T11:54:01;9.43;;;7.63;;
15968;SDS011;8085;53.472;9.794;2023-05-10T11:56:40;8.47;;;7.50;;
15968;SDS011;8085;53.472;9.794;2023-05-10T11:59:07;9.20;;;7.70;;
15968;SDS011;8085;53.472;9.794;2023-05-10T12:01:36;11.20;;;7.90;;
15968;SDS011;8085;53.472;9.794;2023-05-10T12:04:21;9.10;;;6.50;;
15968;SDS011;8085;53.472;9.794;2023-05-10T12:06:53;8.50;;;7.37;;
15968;SDS011;8085;53.472;9.794;2023-05-10T12:09:21;9.13;;;7.60;;
15968;SDS011;8085;53.472;9.794;2023-05-10T12:12:07;8.17;;;7.33;;
15968;SDS011;8085;53.472;9.794;2023-05-10T12:15:17;9.27;;;7.50;;
15968;SDS011;8085;53.472;9.794;2023-05-10T12:18:14;8.53;;;7.03;;
15968;SDS011;8085;53.472;9.794;2023-05-10T12:45:10;9.40;;;8.40;;
15968;SDS011;8085;53.472;9.794;2023-05-10T13:53:47;6.87;;;5.67;;
15968;SDS011;8085;53.472;9.794;2023-05-10T13:56:14;6.93;;;6.10;;
15968;SDS011;8085;53.472;9.794;2023-05-10T13:58:41;6.87;;;6.17;;
15968;SDS011;8085;53.472;9.794;2023-05-10T14:01:08;10.03;;;5.90;;
15968;SDS011;8085;53.472;9.794;2023-05-10T14:03:35;10.20;;;6.70;;
15968;SDS011;8085;53.472;9.794;2023-05-10T14:06:02;7.67;;;6.30;;
15968;SDS011;8085;53.472;9.794;2023-05-10T14:08:33;7.47;;;6.00;;
15968;SDS011;8085;53.472;9.794;2023-05-10T14:11:02;6.43;;;5.60;;
15968;SDS011;8085;53.472;9.794;2023-05-10T14:27:34;5.77;;;5.23;;
15968;SDS011;8085;53.472;9.794;2023-05-10T14:34:05;6.17;;;5.10;;
15968;SDS011;8085;53.472;9.794;2023-05-10T14:36:49;5.77;;;4.87;;
15968;SDS011;8085;53.472;9.794;2023-05-10T16:10:45;2.43;;;2.20;;
15968;SDS011;8085;53.472;9.794;2023-05-10T16:13:12;2.57;;;2.37;;
15968;SDS011;8085;53.472;9.794;2023-05-10T16:15:40;3.63;;;2.10;;
15968;SDS011;8085;53.472;9.794;2023-05-10T16:18:08;2.50;;;2.30;;
15968;SDS011;8085;53.472;9.794;2023-05-10T16:20:35;2.50;;;2.30;;
15968;SDS011;8085;53.472;9.794;2023-05-10T16:23:02;3.13;;;2.20;;
15968;SDS011;8085;53.472;9.794;2023-05-10T16:25:30;2.73;;;2.50;;
15968;SDS011;8085;53.472;9.794;2023-05-10T16:27:58;2.60;;;2.40;;
15968;SDS011;8085;53.472;9.794;2023-05-10T16:30:26;3.20;;;2.63;;
15968;SDS011;8085;53.472;9.794;2023-05-10T16:32:54;2.53;;;2.30;;
15968;SDS011;8085;53.472;9.794;2023-05-10T16:35:21;2.80;;;2.60;;
15968;SDS011;8085;53.472;9.794;2023-05-10T16:37:48;3.83;;;3.43;;
15968;SDS011;8085;53.472;9.794;2023-05-10T16:40:15;3.97;;;3.47;;
15968;SDS011;8085;53.472;9.794;2023-05-10T16:42:44;4.10;;;3.40;;
15968;SDS011;8085;53.472;9.794;2023-05-10T16:45:12;3.97;;;3.57;;
15968;SDS011;8085;53.472;9.794;2023-05-10T16:47:40;3.77;;;3.47;;
15968;SDS011;8085;53.472;9.794;2023-05-10T16:50:07;3.83;;;3.50;;
15968;SDS011;8085;53.472;9.794;2023-05-10T16:52:35;4.33;;;3.57;;
15968;SDS011;8085;53.472;9.794;2023-05-10T16:55:02;4.47;;;4.07;;
15968;SDS011;8085;53.472;9.794;2023-05-10T16:57:30;4.50;;;4.10;;
15968;SDS011;8085;53.472;9.794;2023-05-10T16:59:57;4.47;;;3.80;;
15968;SDS011;8085;53.472;9.794;2023-05-10T17:02:25;4.50;;;4.10;;
15968;SDS011;8085;53.472;9.794;2023-05-10T17:04:52;5.90;;;3.83;;
15968;SDS011;8085;53.472;9.794;2023-05-10T17:07:20;5.60;;;4.63;;
15968;SDS011;8085;53.472;9.794;2023-05-10T17:09:47;5.50;;;4.30;;
15968;SDS011;8085;53.472;9.794;2023-05-10T17:12:16;3.93;;;3.53;;
15968;SDS011;8085;53.472;9.794;2023-05-10T17:14:43;3.53;;;3.07;;
15968;SDS011;8085;53.472;9.794;2023-05-10T17:17:10;2.73;;;2.53;;
15968;SDS011;8085;53.472;9.794;2023-05-10T17:19:38;2.70;;;2.50;;
15968;SDS011;8085;53.472;9.794;2023-05-10T17:22:08;2.57;;;2.10;;
15968;SDS011;8085;53.472;9.794;2023-05-10T17:24:35;3.07;;;2.50;;
15968;SDS011;8085;53.472;9.794;2023-05-10T17:27:02;2.33;;;2.13;;
15968;SDS011;8085;53.472;9.794;2023-05-10T17:29:29;2.67;;;2.37;;
15968;SDS011;8085;53.472;9.794;2023-05-10T17:31:57;3.23;;;2.30;;
15968;SDS011;8085;53.472;9.794;2023-05-10T17:34:27;3.00;;;2.43;;
15968;SDS011;8085;53.472;9.794;2023-05-10T17:37:00;2.40;;;2.20;;
15968;SDS011;8085;53.472;9.794;2023-05-10T17:39:27;3.90;;;2.20;;
15968;SDS011;8085;53.472;9.794;2023-05-10T17:41:59;3.00;;;2.20;;
15968;SDS011;8085;53.472;9.794;2023-05-10T17:44:26;2.20;;;2.00;;
15968;SDS011;8085;53.472;9.794;2023-05-10T17:46:53;2.03;;;1.80;;
15968;SDS011;8085;53.472;9.794;2023-05-10T17:49:22;1.70;;;1.60;;
15968;SDS011;8085;53.472;9.794;2023-05-10T17:51:50;2.13;;;1.90;;
15968;SDS011;8085;53.472;9.794;2023-05-10T17:54:18;2.77;;;2.33;;
15968;SDS011;8085;53.472;9.794;2023-05-10T17:56:48;2.73;;;2.50;;
15968;SDS011;8085;53.472;9.794;2023-05-10T17:59:15;3.00;;;2.70;;
15968;SDS011;8085;53.472;9.794;2023-05-10T18:01:45;3.17;;;2.50;;
15968;SDS011;8085;53.472;9.794;2023-05-10T18:04:12;3.00;;;2.30;;
15968;SDS011;8085;53.472;9.794;2023-05-10T18:06:39;4.23;;;2.40;;
15968;SDS011;8085;53.472;9.794;2023-05-10T18:09:06;2.30;;;2.10;;
15968;SDS011;8085;53.472;9.794;2023-05-10T18:11:35;2.93;;;1.80;;
15968;SDS011;8085;53.472;9.794;2023-05-10T18:14:02;1.67;;;1.57;;
15968;SDS011;8085;53.472;9.794;2023-05-10T18:16:29;2.13;;;1.93;;
15968;SDS011;8085;53.472;9.794;2023-05-10T18:18:59;1.53;;;1.43;;
15968;SDS011;8085;53.472;9.794;2023-05-10T18:21:26;2.00;;;1.70;;
15968;SDS011;8085;53.472;9.794;2023-05-10T18:23:53;3.20;;;1.60;;
15968;SDS011;8085;53.472;9.794;2023-05-10T18:26:22;2.30;;;1.60;;
15968;SDS011;8085;53.472;9.794;2023-05-10T18:28:58;1.20;;;1.10;;
15968;SDS011;8085;53.472;9.794;2023-05-10T18:31:29;1.97;;;1.30;;
15968;SDS011;8085;53.472;9.794;2023-05-10T18:33:56;1.50;;;1.30;;
15968;SDS011;8085;53.472;9.794;2023-05-10T18:36:25;2.77;;;1.50;;
15968;SDS011;8085;53.472;9.794;2023-05-10T18:38:52;3.20;;;1.50;;
15968;SDS011;8085;53.472;9.794;2023-05-10T18:41:19;1.73;;;1.60;;
15968;SDS011;8085;53.472;9.794;2023-05-10T18:43:46;2.30;;;1.43;;
15968;SDS011;8085;53.472;9.794;2023-05-10T18:46:14;1.60;;;1.50;;
15968;SDS011;8085;53.472;9.794;2023-05-10T18:48:42;2.23;;;1.40;;
15968;SDS011;8085;53.472;9.794;2023-05-10T18:51:08;1.60;;;1.50;;
15968;SDS011;8085;53.472;9.794;2023-05-10T18:53:37;1.60;;;1.33;;
15968;SDS011;8085;53.472;9.794;2023-05-10T18:56:04;1.40;;;1.27;;
15968;SDS011;8085;53.472;9.794;2023-05-10T18:58:32;1.20;;;1.10;;
15968;SDS011;8085;53.472;9.794;2023-05-10T19:00:59;1.20;;;1.10;;
15968;SDS011;8085;53.472;9.794;2023-05-10T19:03:28;1.07;;;1.00;;
15968;SDS011;8085;53.472;9.794;2023-05-10T19:05:56;1.33;;;1.10;;
15968;SDS011;8085;53.472;9.794;2023-05-10T19:08:22;1.17;;;1.00;;
15968;SDS011;8085;53.472;9.794;2023-05-10T19:10:49;1.23;;;1.00;;
15968;SDS011;8085;53.472;9.794;2023-05-10T19:13:16;1.23;;;1.13;;
15968;SDS011;8085;53.472;9.794;2023-05-10T19:15:43;1.30;;;1.13;;
15968;SDS011;8085;53.472;9.794;2023-05-10T19:18:10;1.10;;;0.80;;
15968;SDS011;8085;53.472;9.794;2023-05-10T19:20:38;1.30;;;1.20;;
15968;SDS011;8085;53.472;9.794;2023-05-10T19:23:05;1.30;;;1.00;;
15968;SDS011;8085;53.472;9.794;2023-05-10T19:25:32;1.87;;;1.10;;
15968;SDS011;8085;53.472;9.794;2023-05-10T19:28:03;0.83;;;0.83;;
15968;SDS011;8085;53.472;9.794;2023-05-10T19:30:30;1.77;;;1.40;;
15968;SDS011;8085;53.472;9.794;2023-05-10T19:32:57;1.80;;;1.30;;
15968;SDS011;8085;53.472;9.794;2023-05-10T19:35:23;1.27;;;1.17;;
15968;SDS011;8085;53.472;9.794;2023-05-10T19:37:52;1.53;;;1.33;;
15968;SDS011;8085;53.472;9.794;2023-05-10T19:40:19;2.33;;;1.40;;
15968;SDS011;8085;53.472;9.794;2023-05-10T19:42:45;3.17;;;1.40;;